sensor_id;sensor_type;location;lat;lon;timestamp;pressure;altitude;pressure_sealevel;temperature;humidity
36520;BME280;40269;46.742;9.778;2023-02-03T00:00:30;86562.93;;;-5.70;46.95
36520;BME280;40269;46.742;9.778;2023-02-03T00:02:57;86562.73;;;-5.62;45.64
36520;BME280;40269;46.742;9.778;2023-02-03T00:05:24;86555.89;;;-7.94;51.54
36520;BME280;40269;46.742;9.778;2023-02-03T00:07:51;86552.51;;;-5.54;45.22
36520;BME280;40269;46.742;9.778;2023-02-03T00:10:18;86551.94;;;-7.67;48.54
36520;BME280;40269;46.742;9.778;2023-02-03T00:12:46;86553.94;;;-9.92;54.79
36520;BME280;40269;46.742;9.778;2023-02-03T00:15:13;86552.20;;;-8.07;52.79
36520;BME280;40269;46.742;9.778;2023-02-03T00:17:40;86550.57;;;-5.27;45.61
36520;BME280;40269;46.742;9.778;2023-02-03T00:20:08;86558.12;;;-6.93;47.88
36520;BME280;40269;46.742;9.778;2023-02-03T00:22:35;86560.18;;;-9.30;54.22
36520;BME280;40269;46.742;9.778;2023-02-03T00:25:02;86554.83;;;-7.57;50.57
36520;BME280;40269;46.742;9.778;2023-02-03T00:27:31;86558.14;;;-5.10;44.59
36520;BME280;40269;46.742;9.778;2023-02-03T00:29:58;86560.92;;;-6.81;46.46
36520;BME280;40269;46.742;9.778;2023-02-03T00:32:25;86563.11;;;-6.71;46.75
36520;BME280;40269;46.742;9.778;2023-02-03T00:34:52;86564.33;;;-7.96;49.04
36520;BME280;40269;46.742;9.778;2023-02-03T00:37:19;86567.94;;;-5.91;45.52
36520;BME280;40269;46.742;9.778;2023-02-03T00:39:46;86571.75;;;-6.60;46.80
36520;BME280;40269;46.742;9.778;2023-02-03T00:42:13;86574.77;;;-8.99;53.15
36520;BME280;40269;46.742;9.778;2023-02-03T00:44:40;86570.68;;;-6.48;47.68
36520;BME280;40269;46.742;9.778;2023-02-03T00:47:07;86568.29;;;-5.66;45.66
36520;BME280;40269;46.742;9.778;2023-02-03T00:49:34;86568.13;;;-6.39;45.78
36520;BME280;40269;46.742;9.778;2023-02-03T00:52:02;86582.33;;;-6.08;45.36
36520;BME280;40269;46.742;9.778;2023-02-03T00:54:29;86583.42;;;-4.82;42.48
36520;BME280;40269;46.742;9.778;2023-02-03T00:56:56;86577.36;;;-4.71;41.20
36520;BME280;40269;46.742;9.778;2023-02-03T00:59:23;86578.46;;;-6.51;43.58
36520;BME280;40269;46.742;9.778;2023-02-03T01:01:50;86580.64;;;-6.24;43.98
36520;BME280;40269;46.742;9.778;2023-02-03T01:04:17;86588.37;;;-5.78;43.45
36520;BME280;40269;46.742;9.778;2023-02-03T01:06:44;86591.34;;;-5.41;41.20
36520;BME280;40269;46.742;9.778;2023-02-03T01:09:11;86587.81;;;-5.35;41.55
36520;BME280;40269;46.742;9.778;2023-02-03T01:11:38;86586.00;;;-5.06;40.88
36520;BME280;40269;46.742;9.778;2023-02-03T01:14:05;86594.44;;;-4.87;39.63
36520;BME280;40269;46.742;9.778;2023-02-03T01:16:32;86593.34;;;-4.82;39.34
36520;BME280;40269;46.742;9.778;2023-02-03T01:18:59;86600.40;;;-5.09;40.68
36520;BME280;40269;46.742;9.778;2023-02-03T01:21:26;86597.16;;;-8.87;47.58
36520;BME280;40269;46.742;9.778;2023-02-03T01:23:54;86598.48;;;-8.85;47.98
36520;BME280;40269;46.742;9.778;2023-02-03T01:26:22;86606.51;;;-9.90;51.96
36520;BME280;40269;46.742;9.778;2023-02-03T01:28:50;86593.73;;;-8.61;50.45
36520;BME280;40269;46.742;9.778;2023-02-03T01:31:20;86591.35;;;-6.84;47.01
36520;BME280;40269;46.742;9.778;2023-02-03T01:33:47;86597.54;;;-6.81;46.15
36520;BME280;40269;46.742;9.778;2023-02-03T01:36:16;86605.07;;;-4.88;43.32
36520;BME280;40269;46.742;9.778;2023-02-03T01:38:44;86598.61;;;-7.72;47.33
36520;BME280;40269;46.742;9.778;2023-02-03T01:41:13;86596.53;;;-6.86;47.76
36520;BME280;40269;46.742;9.778;2023-02-03T01:43:43;86599.24;;;-6.54;48.38
36520;BME280;40269;46.742;9.778;2023-02-03T01:46:22;86601.20;;;-8.21;51.37
36520;BME280;40269;46.742;9.778;2023-02-03T01:48:51;86594.77;;;-6.82;48.23
36520;BME280;40269;46.742;9.778;2023-02-03T01:51:20;86592.27;;;-5.30;46.05
36520;BME280;40269;46.742;9.778;2023-02-03T01:53:47;86600.26;;;-4.58;44.76
36520;BME280;40269;46.742;9.778;2023-02-03T01:56:15;86598.63;;;-3.25;42.35
36520;BME280;40269;46.742;9.778;2023-02-03T01:58:44;86606.85;;;-6.33;47.86
36520;BME280;40269;46.742;9.778;2023-02-03T02:01:12;86603.44;;;-4.94;45.62
36520;BME280;40269;46.742;9.778;2023-02-03T02:03:41;86609.64;;;-3.61;42.98
36520;BME280;40269;46.742;9.778;2023-02-03T02:06:12;86609.51;;;-3.25;42.48
36520;BME280;40269;46.742;9.778;2023-02-03T02:08:43;86605.04;;;-2.68;41.56
36520;BME280;40269;46.742;9.778;2023-02-03T02:11:11;86601.18;;;-2.20;40.69
36520;BME280;40269;46.742;9.778;2023-02-03T02:13:39;86605.70;;;-3.54;42.92
36520;BME280;40269;46.742;9.778;2023-02-03T02:16:11;86602.80;;;-2.68;41.51
36520;BME280;40269;46.742;9.778;2023-02-03T02:19:11;86606.38;;;-5.23;44.91
36520;BME280;40269;46.742;9.778;2023-02-03T02:21:55;86601.93;;;-7.22;50.38
36520;BME280;40269;46.742;9.778;2023-02-03T02:24:46;86607.24;;;-8.09;53.86
36520;BME280;40269;46.742;9.778;2023-02-03T02:27:29;86609.17;;;-5.46;47.72
36520;BME280;40269;46.742;9.778;2023-02-03T02:30:22;86605.10;;;-4.00;45.46
36520;BME280;40269;46.742;9.778;2023-02-03T02:33:02;86610.19;;;-5.60;48.23
36520;BME280;40269;46.742;9.778;2023-02-03T02:35:46;86615.27;;;-4.47;45.61
36520;BME280;40269;46.742;9.778;2023-02-03T02:38:24;86620.73;;;-5.53;47.87
36520;BME280;40269;46.742;9.778;2023-02-03T02:40:59;86628.56;;;-7.38;53.68
36520;BME280;40269;46.742;9.778;2023-02-03T02:43:33;86626.62;;;-3.69;45.29
36520;BME280;40269;46.742;9.778;2023-02-03T02:46:09;86627.55;;;-2.92;44.62
36520;BME280;40269;46.742;9.778;2023-02-03T02:48:42;86626.16;;;-2.98;43.35
36520;BME280;40269;46.742;9.778;2023-02-03T02:51:13;86634.90;;;-3.91;45.46
36520;BME280;40269;46.742;9.778;2023-02-03T02:53:45;86630.48;;;-4.01;45.92
36520;BME280;40269;46.742;9.778;2023-02-03T02:56:15;86632.15;;;-5.68;48.03
36520;BME280;40269;46.742;9.778;2023-02-03T02:58:47;86625.49;;;-3.04;44.88
36520;BME280;40269;46.742;9.778;2023-02-03T03:01:16;86636.03;;;-6.38;50.21
36520;BME280;40269;46.742;9.778;2023-02-03T03:03:43;86639.55;;;-6.01;50.86
36520;BME280;40269;46.742;9.778;2023-02-03T03:06:14;86639.53;;;-5.56;49.36
36520;BME280;40269;46.742;9.778;2023-02-03T03:08:46;86639.97;;;-6.36;50.30
36520;BME280;40269;46.742;9.778;2023-02-03T03:11:16;86641.01;;;-6.28;52.17
36520;BME280;40269;46.742;9.778;2023-02-03T03:13:48;86652.03;;;-8.03;57.36
36520;BME280;40269;46.742;9.778;2023-02-03T03:16:19;86660.30;;;-5.41;51.95
36520;BME280;40269;46.742;9.778;2023-02-03T03:18:50;86658.99;;;-5.97;50.72
36520;BME280;40269;46.742;9.778;2023-02-03T03:21:23;86655.05;;;-5.78;52.09
36520;BME280;40269;46.742;9.778;2023-02-03T03:23:54;86650.13;;;-6.45;54.18
36520;BME280;40269;46.742;9.778;2023-02-03T03:26:27;86646.73;;;-6.27;53.40
36520;BME280;40269;46.742;9.778;2023-02-03T03:29:02;86643.00;;;-7.75;56.99
36520;BME280;40269;46.742;9.778;2023-02-03T03:31:32;86644.71;;;-6.87;55.23
36520;BME280;40269;46.742;9.778;2023-02-03T03:33:59;86646.29;;;-7.61;56.91
36520;BME280;40269;46.742;9.778;2023-02-03T03:36:30;86640.57;;;-5.66;53.90
36520;BME280;40269;46.742;9.778;2023-02-03T03:39:03;86642.83;;;-7.53;57.07
36520;BME280;40269;46.742;9.778;2023-02-03T03:41:38;86642.33;;;-5.98;53.12
36520;BME280;40269;46.742;9.778;2023-02-03T03:44:10;86638.88;;;-3.90;49.42
36520;BME280;40269;46.742;9.778;2023-02-03T03:46:44;86637.47;;;-5.60;51.07
36520;BME280;40269;46.742;9.778;2023-02-03T03:49:13;86635.48;;;-3.16;46.07
36520;BME280;40269;46.742;9.778;2023-02-03T03:51:46;86630.32;;;-2.94;44.39
36520;BME280;40269;46.742;9.778;2023-02-03T03:54:16;86636.32;;;-1.97;42.68
36520;BME280;40269;46.742;9.778;2023-02-03T03:56:47;86640.92;;;-3.39;44.71
36520;BME280;40269;46.742;9.778;2023-02-03T03:59:19;86634.90;;;-3.09;44.47
36520;BME280;40269;46.742;9.778;2023-02-03T04:01:48;86633.05;;;-3.34;44.36
36520;BME280;40269;46.742;9.778;2023-02-03T04:04:17;86640.06;;;-3.23;44.25
36520;BME280;40269;46.742;9.778;2023-02-03T04:06:45;86648.01;;;-4.52;46.92
36520;BME280;40269;46.742;9.778;2023-02-03T04:09:12;86647.97;;;-1.61;42.48
36520;BME280;40269;46.742;9.778;2023-02-03T04:11:38;86647.98;;;-1.00;40.53
36520;BME280;40269;46.742;9.778;2023-02-03T04:14:05;86643.85;;;-2.79;43.33
36520;BME280;40269;46.742;9.778;2023-02-03T04:16:32;86635.45;;;-3.74;46.00
36520;BME280;40269;46.742;9.778;2023-02-03T04:19:00;86618.85;;;-1.13;41.65
36520;BME280;40269;46.742;9.778;2023-02-03T04:21:26;86615.01;;;-1.37;41.34
36520;BME280;40269;46.742;9.778;2023-02-03T04:23:53;86618.92;;;-3.10;43.07
36520;BME280;40269;46.742;9.778;2023-02-03T04:26:20;86624.05;;;-1.39;40.42
36520;BME280;40269;46.742;9.778;2023-02-03T04:28:47;86632.83;;;-1.47;40.66
36520;BME280;40269;46.742;9.778;2023-02-03T04:31:14;86648.57;;;-1.73;40.70
36520;BME280;40269;46.742;9.778;2023-02-03T04:33:40;86643.57;;;-1.70;40.62
36520;BME280;40269;46.742;9.778;2023-02-03T04:36:08;86642.82;;;-5.46;49.02
36520;BME280;40269;46.742;9.778;2023-02-03T04:38:35;86645.58;;;-3.57;45.89
36520;BME280;40269;46.742;9.778;2023-02-03T04:41:03;86658.60;;;-3.71;44.89
36520;BME280;40269;46.742;9.778;2023-02-03T04:43:29;86660.30;;;-3.62;44.48
36520;BME280;40269;46.742;9.778;2023-02-03T04:45:58;86655.44;;;-1.48;40.77
36520;BME280;40269;46.742;9.778;2023-02-03T04:48:25;86656.68;;;-0.33;38.96
36520;BME280;40269;46.742;9.778;2023-02-03T04:50:51;86662.92;;;-5.22;46.28
36520;BME280;40269;46.742;9.778;2023-02-03T04:53:18;86654.09;;;-5.33;47.44
36520;BME280;40269;46.742;9.778;2023-02-03T04:55:45;86645.94;;;-4.96;47.69
36520;BME280;40269;46.742;9.778;2023-02-03T04:58:13;86648.31;;;-5.53;48.34
36520;BME280;40269;46.742;9.778;2023-02-03T05:00:40;86638.15;;;-3.19;42.92
36520;BME280;40269;46.742;9.778;2023-02-03T05:03:07;86646.61;;;-6.14;46.29
36520;BME280;40269;46.742;9.778;2023-02-03T05:05:34;86638.90;;;-4.46;44.90
36520;BME280;40269;46.742;9.778;2023-02-03T05:08:01;86643.28;;;-3.17;40.86
36520;BME280;40269;46.742;9.778;2023-02-03T05:10:28;86630.99;;;-8.28;50.63
36520;BME280;40269;46.742;9.778;2023-02-03T05:12:55;86630.13;;;-6.74;50.19
36520;BME280;40269;46.742;9.778;2023-02-03T05:15:22;86613.27;;;-8.69;52.64
36520;BME280;40269;46.742;9.778;2023-02-03T05:17:50;86607.82;;;-6.47;50.51
36520;BME280;40269;46.742;9.778;2023-02-03T05:20:18;86605.40;;;-6.83;50.45
36520;BME280;40269;46.742;9.778;2023-02-03T05:22:45;86607.51;;;-5.45;47.55
36520;BME280;40269;46.742;9.778;2023-02-03T05:25:12;86606.81;;;-6.71;49.94
36520;BME280;40269;46.742;9.778;2023-02-03T05:27:40;86593.64;;;-4.48;43.15
36520;BME280;40269;46.742;9.778;2023-02-03T05:30:09;86595.02;;;-8.02;47.72
36520;BME280;40269;46.742;9.778;2023-02-03T05:32:36;86596.64;;;-8.66;51.42
36520;BME280;40269;46.742;9.778;2023-02-03T05:35:03;86594.95;;;-7.12;48.67
36520;BME280;40269;46.742;9.778;2023-02-03T05:37:30;86600.46;;;-9.34;54.60
36520;BME280;40269;46.742;9.778;2023-02-03T05:39:57;86602.92;;;-9.77;56.39
36520;BME280;40269;46.742;9.778;2023-02-03T05:42:24;86608.46;;;-9.37;56.16
36520;BME280;40269;46.742;9.778;2023-02-03T05:44:51;86615.73;;;-7.77;51.98
36520;BME280;40269;46.742;9.778;2023-02-03T05:47:18;86623.04;;;-7.95;50.06
36520;BME280;40269;46.742;9.778;2023-02-03T05:49:45;86626.51;;;-6.03;47.23
36520;BME280;40269;46.742;9.778;2023-02-03T05:52:12;86633.50;;;-6.30;45.18
36520;BME280;40269;46.742;9.778;2023-02-03T05:54:39;86632.00;;;-7.90;48.59
36520;BME280;40269;46.742;9.778;2023-02-03T05:57:06;86623.42;;;-6.35;45.36
36520;BME280;40269;46.742;9.778;2023-02-03T05:59:33;86623.63;;;-4.91;43.01
36520;BME280;40269;46.742;9.778;2023-02-03T06:02:00;86628.40;;;-8.54;48.18
36520;BME280;40269;46.742;9.778;2023-02-03T06:04:27;86645.02;;;-10.10;52.92
36520;BME280;40269;46.742;9.778;2023-02-03T06:06:54;86654.84;;;-10.63;55.37
36520;BME280;40269;46.742;9.778;2023-02-03T06:09:21;86643.37;;;-8.65;51.58
36520;BME280;40269;46.742;9.778;2023-02-03T06:11:48;86642.13;;;-7.59;48.36
36520;BME280;40269;46.742;9.778;2023-02-03T06:14:15;86654.53;;;-7.83;48.73
36520;BME280;40269;46.742;9.778;2023-02-03T06:16:42;86666.03;;;-10.23;53.64
36520;BME280;40269;46.742;9.778;2023-02-03T06:19:09;86672.51;;;-9.70;53.60
36520;BME280;40269;46.742;9.778;2023-02-03T06:21:36;86685.98;;;-11.09;55.33
36520;BME280;40269;46.742;9.778;2023-02-03T06:24:03;86690.70;;;-11.04;57.62
36520;BME280;40269;46.742;9.778;2023-02-03T06:26:30;86687.56;;;-8.89;51.86
36520;BME280;40269;46.742;9.778;2023-02-03T06:28:57;86695.22;;;-8.27;50.39
36520;BME280;40269;46.742;9.778;2023-02-03T06:31:24;86692.03;;;-6.83;46.17
36520;BME280;40269;46.742;9.778;2023-02-03T06:33:52;86688.75;;;-8.41;48.64
36520;BME280;40269;46.742;9.778;2023-02-03T06:36:18;86688.49;;;-10.32;52.51
36520;BME280;40269;46.742;9.778;2023-02-03T06:38:46;86695.07;;;-8.51;49.89
36520;BME280;40269;46.742;9.778;2023-02-03T06:41:13;86698.49;;;-9.28;51.10
36520;BME280;40269;46.742;9.778;2023-02-03T06:43:40;86695.53;;;-9.09;49.95
36520;BME280;40269;46.742;9.778;2023-02-03T06:46:07;86699.52;;;-11.35;56.46
36520;BME280;40269;46.742;9.778;2023-02-03T06:48:34;86683.36;;;-12.17;58.97
36520;BME280;40269;46.742;9.778;2023-02-03T06:51:01;86678.71;;;-9.58;53.05
36520;BME280;40269;46.742;9.778;2023-02-03T06:53:28;86687.56;;;-11.48;57.46
36520;BME280;40269;46.742;9.778;2023-02-03T06:55:56;86685.09;;;-10.87;55.71
36520;BME280;40269;46.742;9.778;2023-02-03T06:58:23;86678.58;;;-8.36;50.53
36520;BME280;40269;46.742;9.778;2023-02-03T07:00:50;86674.87;;;-8.33;48.54
36520;BME280;40269;46.742;9.778;2023-02-03T07:03:16;86673.36;;;-11.70;57.23
36520;BME280;40269;46.742;9.778;2023-02-03T07:05:44;86668.45;;;-10.15;54.44
36520;BME280;40269;46.742;9.778;2023-02-03T07:08:10;86663.96;;;-10.29;54.77
36520;BME280;40269;46.742;9.778;2023-02-03T07:10:37;86659.25;;;-9.78;50.84
36520;BME280;40269;46.742;9.778;2023-02-03T07:13:05;86672.92;;;-11.00;55.09
36520;BME280;40269;46.742;9.778;2023-02-03T07:15:34;86672.29;;;-10.85;56.29
36520;BME280;40269;46.742;9.778;2023-02-03T07:18:01;86669.36;;;-9.69;51.13
36520;BME280;40269;46.742;9.778;2023-02-03T07:20:29;86665.09;;;-12.22;58.69
36520;BME280;40269;46.742;9.778;2023-02-03T07:22:57;86663.71;;;-9.31;51.22
36520;BME280;40269;46.742;9.778;2023-02-03T07:25:25;86675.47;;;-11.46;55.97
36520;BME280;40269;46.742;9.778;2023-02-03T07:27:52;86659.83;;;-9.05;51.63
36520;BME280;40269;46.742;9.778;2023-02-03T07:30:20;86662.38;;;-10.44;53.16
36520;BME280;40269;46.742;9.778;2023-02-03T07:32:47;86673.37;;;-11.25;55.39
36520;BME280;40269;46.742;9.778;2023-02-03T07:35:15;86670.57;;;-7.76;47.59
36520;BME280;40269;46.742;9.778;2023-02-03T07:37:42;86675.55;;;-9.14;49.08
36520;BME280;40269;46.742;9.778;2023-02-03T07:40:10;86665.76;;;-7.20;45.69
36520;BME280;40269;46.742;9.778;2023-02-03T07:42:40;86678.15;;;-11.10;52.58
36520;BME280;40269;46.742;9.778;2023-02-03T07:45:10;86677.23;;;-9.70;51.19
36520;BME280;40269;46.742;9.778;2023-02-03T07:47:38;86685.76;;;-10.34;50.21
36520;BME280;40269;46.742;9.778;2023-02-03T07:50:06;86674.19;;;-8.07;46.37
36520;BME280;40269;46.742;9.778;2023-02-03T07:52:34;86676.70;;;-9.20;48.75
36520;BME280;40269;46.742;9.778;2023-02-03T07:55:02;86680.39;;;-10.10;50.14
36520;BME280;40269;46.742;9.778;2023-02-03T07:57:29;86681.33;;;-10.30;51.40
36520;BME280;40269;46.742;9.778;2023-02-03T07:59:56;86684.96;;;-11.11;52.62
36520;BME280;40269;46.742;9.778;2023-02-03T08:02:23;86681.02;;;-9.35;49.34
36520;BME280;40269;46.742;9.778;2023-02-03T08:04:50;86689.56;;;-10.86;52.73
36520;BME280;40269;46.742;9.778;2023-02-03T08:07:17;86703.05;;;-12.19;55.27
36520;BME280;40269;46.742;9.778;2023-02-03T08:09:44;86715.61;;;-13.35;59.61
36520;BME280;40269;46.742;9.778;2023-02-03T08:12:11;86707.72;;;-10.15;51.68
36520;BME280;40269;46.742;9.778;2023-02-03T08:14:38;86703.62;;;-9.68;50.70
36520;BME280;40269;46.742;9.778;2023-02-03T08:17:05;86694.91;;;-7.58;46.14
36520;BME280;40269;46.742;9.778;2023-02-03T08:19:33;86697.54;;;-8.06;46.07
36520;BME280;40269;46.742;9.778;2023-02-03T08:22:00;86696.41;;;-8.83;46.35
36520;BME280;40269;46.742;9.778;2023-02-03T08:24:27;86701.49;;;-12.38;55.58
36520;BME280;40269;46.742;9.778;2023-02-03T08:26:54;86698.62;;;-11.22;54.94
36520;BME280;40269;46.742;9.778;2023-02-03T08:29:21;86708.97;;;-11.81;56.79
36520;BME280;40269;46.742;9.778;2023-02-03T08:31:48;86715.98;;;-11.04;55.13
36520;BME280;40269;46.742;9.778;2023-02-03T08:34:15;86710.45;;;-11.40;56.68
36520;BME280;40269;46.742;9.778;2023-02-03T08:36:42;86712.38;;;-11.99;57.91
36520;BME280;40269;46.742;9.778;2023-02-03T08:39:09;86722.92;;;-10.15;52.87
36520;BME280;40269;46.742;9.778;2023-02-03T08:41:36;86716.85;;;-11.21;56.30
36520;BME280;40269;46.742;9.778;2023-02-03T08:44:03;86719.44;;;-8.32;50.09
36520;BME280;40269;46.742;9.778;2023-02-03T08:46:30;86705.15;;;-6.91;47.56
36520;BME280;40269;46.742;9.778;2023-02-03T08:48:57;86713.28;;;-10.49;55.65
36520;BME280;40269;46.742;9.778;2023-02-03T08:51:24;86712.04;;;-8.61;51.17
36520;BME280;40269;46.742;9.778;2023-02-03T08:53:51;86705.56;;;-6.87;47.75
36520;BME280;40269;46.742;9.778;2023-02-03T08:56:18;86708.67;;;-7.60;48.28
36520;BME280;40269;46.742;9.778;2023-02-03T08:58:45;86705.23;;;-6.00;44.85
36520;BME280;40269;46.742;9.778;2023-02-03T09:01:14;86712.21;;;-5.17;44.19
36520;BME280;40269;46.742;9.778;2023-02-03T09:03:41;86706.37;;;-8.85;50.48
36520;BME280;40269;46.742;9.778;2023-02-03T09:06:09;86707.69;;;-10.15;55.74
36520;BME280;40269;46.742;9.778;2023-02-03T09:08:36;86711.72;;;-10.39;55.51
36520;BME280;40269;46.742;9.778;2023-02-03T09:11:07;86705.24;;;-8.89;52.28
36520;BME280;40269;46.742;9.778;2023-02-03T09:13:35;86699.29;;;-5.61;45.92
36520;BME280;40269;46.742;9.778;2023-02-03T09:16:03;86693.09;;;-6.79;48.60
36520;BME280;40269;46.742;9.778;2023-02-03T09:18:30;86697.77;;;-4.39;45.04
36520;BME280;40269;46.742;9.778;2023-02-03T09:21:00;86693.61;;;-7.67;54.18
36520;BME280;40269;46.742;9.778;2023-02-03T09:23:27;86690.53;;;-4.48;47.48
36520;BME280;40269;46.742;9.778;2023-02-03T09:25:54;86686.99;;;-3.49;44.37
36520;BME280;40269;46.742;9.778;2023-02-03T09:28:20;86684.49;;;-2.76;43.58
36520;BME280;40269;46.742;9.778;2023-02-03T09:30:47;86687.18;;;-2.81;45.25
36520;BME280;40269;46.742;9.778;2023-02-03T09:33:14;86690.53;;;-3.26;42.65
36520;BME280;40269;46.742;9.778;2023-02-03T09:35:41;86691.47;;;-2.59;44.58
36520;BME280;40269;46.742;9.778;2023-02-03T09:38:07;86689.62;;;-0.65;41.58
36520;BME280;40269;46.742;9.778;2023-02-03T09:40:36;86682.88;;;0.56;40.57
36520;BME280;40269;46.742;9.778;2023-02-03T09:43:25;86678.23;;;1.86;35.00
36520;BME280;40269;46.742;9.778;2023-02-03T09:46:00;86681.92;;;1.63;34.70
36520;BME280;40269;46.742;9.778;2023-02-03T09:48:34;86669.73;;;1.80;36.33
36520;BME280;40269;46.742;9.778;2023-02-03T09:51:03;86675.88;;;2.43;34.23
36520;BME280;40269;46.742;9.778;2023-02-03T09:53:34;86675.57;;;4.23;30.61
36520;BME280;40269;46.742;9.778;2023-02-03T09:56:03;86676.54;;;4.52;31.00
36520;BME280;40269;46.742;9.778;2023-02-03T09:58:33;86680.67;;;3.21;31.10
36520;BME280;40269;46.742;9.778;2023-02-03T10:01:02;86684.55;;;0.42;37.71
36520;BME280;40269;46.742;9.778;2023-02-03T10:03:35;86677.86;;;3.35;33.40
36520;BME280;40269;46.742;9.778;2023-02-03T10:06:09;86673.93;;;2.20;35.29
36520;BME280;40269;46.742;9.778;2023-02-03T10:08:49;86673.67;;;2.58;31.94
36520;BME280;40269;46.742;9.778;2023-02-03T10:11:30;86678.16;;;0.72;37.64
36520;BME280;40269;46.742;9.778;2023-02-03T10:14:11;86671.19;;;2.67;35.04
36520;BME280;40269;46.742;9.778;2023-02-03T10:16:53;86674.69;;;4.65;31.90
36520;BME280;40269;46.742;9.778;2023-02-03T10:19:36;86664.83;;;4.34;30.89
36520;BME280;40269;46.742;9.778;2023-02-03T10:22:05;86666.70;;;6.76;29.23
36520;BME280;40269;46.742;9.778;2023-02-03T10:24:38;86660.98;;;5.92;30.76
36520;BME280;40269;46.742;9.778;2023-02-03T10:27:13;86647.26;;;4.90;33.03
36520;BME280;40269;46.742;9.778;2023-02-03T10:29:42;86645.38;;;5.81;31.71
36520;BME280;40269;46.742;9.778;2023-02-03T10:32:09;86637.03;;;8.22;27.11
36520;BME280;40269;46.742;9.778;2023-02-03T10:34:37;86629.69;;;5.67;28.21
36520;BME280;40269;46.742;9.778;2023-02-03T10:37:12;86623.37;;;7.62;28.53
36520;BME280;40269;46.742;9.778;2023-02-03T10:39:45;86626.81;;;9.59;25.99
36520;BME280;40269;46.742;9.778;2023-02-03T10:42:13;86620.66;;;8.80;27.43
36520;BME280;40269;46.742;9.778;2023-02-03T10:44:42;86624.67;;;9.04;25.68
36520;BME280;40269;46.742;9.778;2023-02-03T10:47:30;86627.96;;;8.19;26.89
36520;BME280;40269;46.742;9.778;2023-02-03T10:50:03;86616.62;;;9.65;27.69
36520;BME280;40269;46.742;9.778;2023-02-03T10:52:32;86618.87;;;9.85;24.64
36520;BME280;40269;46.742;9.778;2023-02-03T10:55:06;86612.45;;;9.31;26.33
36520;BME280;40269;46.742;9.778;2023-02-03T10:57:35;86598.63;;;10.92;22.80
36520;BME280;40269;46.742;9.778;2023-02-03T11:00:18;86603.58;;;8.82;25.83
36520;BME280;40269;46.742;9.778;2023-02-03T11:00:23;86605.24;;;9.31;25.31
36520;BME280;40269;46.742;9.778;2023-02-03T11:02:56;86601.10;;;5.60;29.12
36520;BME280;40269;46.742;9.778;2023-02-03T11:05:23;86597.93;;;8.81;26.95
36520;BME280;40269;46.742;9.778;2023-02-03T11:07:50;86598.87;;;8.66;26.93
36520;BME280;40269;46.742;9.778;2023-02-03T11:10:27;86592.21;;;8.76;27.11
36520;BME280;40269;46.742;9.778;2023-02-03T11:13:10;86587.54;;;9.43;25.66
36520;BME280;40269;46.742;9.778;2023-02-03T11:15:43;86587.87;;;8.61;27.96
36520;BME280;40269;46.742;9.778;2023-02-03T11:18:39;86573.38;;;7.34;29.19
36520;BME280;40269;46.742;9.778;2023-02-03T11:21:10;86561.63;;;9.35;28.49
36520;BME280;40269;46.742;9.778;2023-02-03T11:23:45;86560.75;;;9.50;26.45
36520;BME280;40269;46.742;9.778;2023-02-03T11:26:16;86556.92;;;10.99;25.04
36520;BME280;40269;46.742;9.778;2023-02-03T11:28:46;86543.91;;;9.34;25.42
36520;BME280;40269;46.742;9.778;2023-02-03T11:31:18;86539.98;;;11.98;24.02
36520;BME280;40269;46.742;9.778;2023-02-03T11:33:48;86543.28;;;11.26;25.20
36520;BME280;40269;46.742;9.778;2023-02-03T11:36:16;86529.17;;;12.37;24.24
36520;BME280;40269;46.742;9.778;2023-02-03T11:38:44;86526.38;;;13.48;23.39
36520;BME280;40269;46.742;9.778;2023-02-03T11:41:17;86515.62;;;13.28;21.82
36520;BME280;40269;46.742;9.778;2023-02-03T11:43:45;86534.17;;;7.45;28.02
36520;BME280;40269;46.742;9.778;2023-02-03T11:46:13;86531.69;;;10.33;24.81
36520;BME280;40269;46.742;9.778;2023-02-03T11:48:49;86526.88;;;11.85;24.32
36520;BME280;40269;46.742;9.778;2023-02-03T11:51:33;86526.84;;;12.88;23.17
36520;BME280;40269;46.742;9.778;2023-02-03T11:54:14;86521.97;;;12.13;22.91
36520;BME280;40269;46.742;9.778;2023-02-03T11:57:27;86513.19;;;12.92;22.51
36520;BME280;40269;46.742;9.778;2023-02-03T12:00:08;86517.21;;;12.63;21.79
36520;BME280;40269;46.742;9.778;2023-02-03T12:06:10;86497.75;;;15.11;21.46
36520;BME280;40269;46.742;9.778;2023-02-03T12:08:54;86499.14;;;11.27;21.96
36520;BME280;40269;46.742;9.778;2023-02-03T12:11:35;86500.70;;;8.60;26.18
36520;BME280;40269;46.742;9.778;2023-02-03T12:14:16;86503.84;;;7.37;26.92
36520;BME280;40269;46.742;9.778;2023-02-03T12:17:03;86513.15;;;10.11;26.29
36520;BME280;40269;46.742;9.778;2023-02-03T12:19:45;86515.96;;;9.53;26.26
36520;BME280;40269;46.742;9.778;2023-02-03T12:22:25;86517.10;;;10.43;25.90
36520;BME280;40269;46.742;9.778;2023-02-03T12:25:02;86510.82;;;14.43;21.51
36520;BME280;40269;46.742;9.778;2023-02-03T12:27:40;86503.69;;;13.83;21.54
36520;BME280;40269;46.742;9.778;2023-02-03T12:30:19;86488.90;;;13.12;22.55
36520;BME280;40269;46.742;9.778;2023-02-03T12:32:51;86491.71;;;14.98;20.13
36520;BME280;40269;46.742;9.778;2023-02-03T12:35:22;86492.73;;;11.24;24.51
36520;BME280;40269;46.742;9.778;2023-02-03T12:37:57;86491.74;;;13.82;21.88
36520;BME280;40269;46.742;9.778;2023-02-03T12:40:34;86485.62;;;16.49;20.08
36520;BME280;40269;46.742;9.778;2023-02-03T12:43:14;86481.78;;;15.96;20.16
36520;BME280;40269;46.742;9.778;2023-02-03T12:45:50;86487.59;;;14.89;19.81
36520;BME280;40269;46.742;9.778;2023-02-03T12:48:22;86483.79;;;14.70;21.55
36520;BME280;40269;46.742;9.778;2023-02-03T12:50:53;86477.23;;;14.40;22.11
36520;BME280;40269;46.742;9.778;2023-02-03T12:53:27;86470.97;;;14.63;20.69
36520;BME280;40269;46.742;9.778;2023-02-03T12:56:00;86463.56;;;16.07;20.69
36520;BME280;40269;46.742;9.778;2023-02-03T12:58:31;86465.35;;;14.86;19.80
36520;BME280;40269;46.742;9.778;2023-02-03T13:01:03;86463.91;;;14.81;21.98
36520;BME280;40269;46.742;9.778;2023-02-03T13:03:35;86470.53;;;15.02;21.56
36520;BME280;40269;46.742;9.778;2023-02-03T13:06:10;86462.06;;;12.81;21.90
36520;BME280;40269;46.742;9.778;2023-02-03T13:08:42;86457.61;;;13.75;23.44
36520;BME280;40269;46.742;9.778;2023-02-03T13:11:18;86449.76;;;13.60;24.38
36520;BME280;40269;46.742;9.778;2023-02-03T13:13:52;86448.47;;;14.18;21.71
36520;BME280;40269;46.742;9.778;2023-02-03T13:16:24;86454.17;;;10.08;24.45